Time;durP1;ratioP1;P1;durP2;ratioP2;P2;SDS_P1;SDS_P2;PMS_P1;PMS_P2;Temp;Humidity;BMP_temperature;BMP_pressure;BME280_temperature;BME280_humidity;BME280_pressure;Samples;Min_cycle;Max_cycle;Signal;HPM_P1;HPM_P2
2022/05/21 00:02:07;;;;;;;;;;;;;;;23.38;48.91;101838.09;5073275;28;20008;-84
2022/05/21 00:04:33;;;;;;;;;;;;;;;23.37;48.47;101837.28;5073891;28;20360;-84
2022/05/21 00:06:58;;;;;;;;;;;;;;;23.37;48.83;101844.75;5073790;28;19950;-84
2022/05/21 00:09:24;;;;;;;;;;;;;;;23.36;48.70;101838.41;5055840;28;19925;-85
2022/05/21 00:11:49;;;;;;;;;;;;;;;23.36;48.94;101846.69;5072627;28;19931;-83
2022/05/21 00:14:15;;;;;;;;;;;;;;;23.35;48.63;101845.03;5072878;28;19937;-84
2022/05/21 00:16:40;;;;;;;;;;;;;;;23.36;48.41;101854.97;5074123;28;19946;-84
2022/05/21 00:19:05;;;;;;;;;;;;;;;23.35;48.89;101858.81;5073151;28;19989;-84
2022/05/21 00:21:31;;;;;;;;;;;;;;;23.35;48.67;101852.50;5073792;28;19924;-84
2022/05/21 00:23:56;;;;;;;;;;;;;;;23.35;48.51;101845.03;5073750;28;19931;-85
2022/05/21 00:26:21;;;;;;;;;;;;;;;23.33;48.42;101848.13;5072683;28;20317;-84
2022/05/21 00:28:47;;;;;;;;;;;;;;;23.33;48.46;101850.88;5072321;28;19927;-84
2022/05/21 00:31:14;;;;;;;;;;;;;;;23.33;48.77;101850.88;5072596;28;19935;-85
2022/05/21 00:33:40;;;;;;;;;;;;;;;23.32;48.43;101849.22;5073646;28;19916;-84
2022/05/21 00:36:07;;;;;;;;;;;;;;;23.33;48.34;101847.28;5072295;28;20000;-85
2022/05/21 00:38:33;;;;;;;;;;;;;;;23.33;48.40;101848.13;5076112;28;19923;-84
2022/05/21 00:40:58;;;;;;;;;;;;;;;23.32;48.44;101856.66;5077851;28;19933;-84
2022/05/21 00:43:38;;;;;;;;;;;;;;;23.32;48.77;101854.72;5076097;28;19920;-84
2022/05/21 00:46:05;;;;;;;;;;;;;;;23.32;48.63;101862.19;5076125;28;19934;-84
2022/05/21 00:48:30;;;;;;;;;;;;;;;23.32;48.79;101848.41;5076639;28;20016;-84
2022/05/21 00:50:56;;;;;;;;;;;;;;;23.29;48.72;101855.34;5075809;28;20413;-85
2022/05/21 00:53:21;;;;;;;;;;;;;;;23.29;48.80;101843.50;5077310;28;19985;-85
2022/05/21 00:55:48;;;;;;;;;;;;;;;23.31;48.59;101852.28;5077560;28;20508;-84
2022/05/21 01:01:00;;;;;;;;;;;;;;;23.29;48.35;101844.31;5077801;28;20023;-84
2022/05/21 01:03:27;;;;;;;;;;;;;;;23.29;48.28;101849.81;5075835;28;20387;-84
2022/05/21 01:05:53;;;;;;;;;;;;;;;23.28;48.34;101839.09;5075732;28;19933;-84
2022/05/21 01:08:19;;;;;;;;;;;;;;;23.27;48.28;101843.78;5075321;28;19981;-84
2022/05/21 01:10:46;;;;;;;;;;;;;;;23.27;48.43;101838.28;5077361;28;19942;-85
2022/05/21 01:13:15;;;;;;;;;;;;;;;23.28;48.73;101839.09;5076576;28;20405;-84
2022/05/21 01:15:42;;;;;;;;;;;;;;;23.27;48.68;101841.03;5076589;28;20019;-84
2022/05/21 01:18:08;;;;;;;;;;;;;;;23.28;48.72;101844.59;5076805;28;20372;-84
2022/05/21 01:20:36;;;;;;;;;;;;;;;23.27;48.76;101838.28;5075809;28;19935;-84
2022/05/21 01:23:01;;;;;;;;;;;;;;;23.27;48.68;101842.97;5076708;28;19939;-84
2022/05/21 01:25:29;;;;;;;;;;;;;;;23.26;48.42;101828.38;5077293;28;19916;-84
2022/05/21 01:27:54;;;;;;;;;;;;;;;23.27;48.72;101837.47;5076319;28;20014;-84
2022/05/21 01:30:32;;;;;;;;;;;;;;;23.26;48.37;101838.59;5077109;28;20353;-85
2022/05/21 01:32:58;;;;;;;;;;;;;;;23.26;48.65;101831.13;5075055;28;19917;-83
2022/05/21 01:35:23;;;;;;;;;;;;;;;23.25;48.37;101837.75;5075266;28;19950;-84
2022/05/21 01:37:48;;;;;;;;;;;;;;;23.25;48.69;101837.75;5075243;28;19938;-85
2022/05/21 01:40:15;;;;;;;;;;;;;;;23.25;48.29;101831.44;5076841;28;20402;-84
2022/05/21 01:42:40;;;;;;;;;;;;;;;23.25;48.25;101834.19;5076391;28;19916;-84
2022/05/21 01:45:06;;;;;;;;;;;;;;;23.25;48.66;101836.94;5076343;28;20527;-84
2022/05/21 01:47:31;;;;;;;;;;;;;;;23.25;48.54;101835.00;5074918;28;19955;-84
2022/05/21 01:49:57;;;;;;;;;;;;;;;23.24;48.55;101833.38;5075286;28;20393;-84
2022/05/21 01:52:22;;;;;;;;;;;;;;;23.24;48.19;101829.81;5076625;28;19928;-84
2022/05/21 01:54:47;;;;;;;;;;;;;;;23.24;48.56;101827.88;5075057;28;19965;-84
2022/05/21 01:57:13;;;;;;;;;;;;;;;23.23;48.52;101826.22;5075422;28;19990;-84
2022/05/21 01:59:38;;;;;;;;;;;;;;;23.23;48.16;101828.97;5074815;28;19925;-84
2022/05/21 02:02:04;;;;;;;;;;;;;;;23.23;48.50;101830.91;5074641;28;19991;-83
2022/05/21 02:04:29;;;;;;;;;;;;;;;23.23;48.14;101831.72;5075967;28;20374;-84
2022/05/21 02:06:54;;;;;;;;;;;;;;;23.23;48.61;101837.22;5074886;28;19951;-83
2022/05/21 02:09:20;;;;;;;;;;;;;;;23.22;48.46;101838.38;5075860;28;19923;-85
2022/05/21 02:11:45;;;;;;;;;;;;;;;23.23;48.57;101836.41;5074858;28;20363;-85
2022/05/21 02:14:11;;;;;;;;;;;;;;;23.23;48.56;101847.44;5075803;28;19942;-84
2022/05/21 02:16:36;;;;;;;;;;;;;;;23.22;48.55;101838.38;5076529;28;19920;-85
2022/05/21 02:19:03;;;;;;;;;;;;;;;23.22;48.14;101848.59;5057757;28;19984;-83
2022/05/21 02:21:28;;;;;;;;;;;;;;;23.21;48.47;101850.53;5075689;28;19927;-84
2022/05/21 02:23:54;;;;;;;;;;;;;;;23.21;48.20;101838.66;5075667;28;20007;-84
2022/05/21 02:26:20;;;;;;;;;;;;;;;23.21;48.37;101833.97;5074387;28;19960;-84
2022/05/21 02:28:45;;;;;;;;;;;;;;;23.21;48.59;101833.97;5075685;28;20000;-84
2022/05/21 02:31:11;;;;;;;;;;;;;;;23.21;48.50;101833.13;5075616;28;19953;-84
2022/05/21 02:33:36;;;;;;;;;;;;;;;23.20;48.13;101835.09;5074240;28;20477;-84
2022/05/21 02:36:01;;;;;;;;;;;;;;;23.20;48.13;101828.75;5076225;28;19920;-84
2022/05/21 02:41:11;;;;;;;;;;;;;;;23.20;48.53;101834.28;5074827;28;19938;-84
2022/05/21 02:43:37;;;;;;;;;;;;;;;23.20;48.07;101848.06;5075262;28;20355;-84
2022/05/21 02:46:02;;;;;;;;;;;;;;;23.20;48.48;101848.88;5075584;28;19943;-85
2022/05/21 02:48:29;;;;;;;;;;;;;;;23.19;48.45;101836.22;5075053;28;19916;-84
2022/05/21 02:50:55;;;;;;;;;;;;;;;23.19;48.48;101833.47;5074366;28;20256;-84
2022/05/21 02:53:20;;;;;;;;;;;;;;;23.19;48.51;101841.72;5074047;28;20360;-85
2022/05/21 02:55:46;;;;;;;;;;;;;;;23.19;48.45;101843.69;5074734;28;20340;-84
2022/05/21 02:58:12;;;;;;;;;;;;;;;23.20;48.40;101848.06;5074847;28;19966;-84
2022/05/21 03:00:37;;;;;;;;;;;;;;;23.18;48.51;101845.59;5073931;28;19996;-85
2022/05/21 03:03:02;;;;;;;;;;;;;;;23.19;48.02;101847.25;5074833;28;19927;-83
2022/05/21 03:05:29;;;;;;;;;;;;;;;23.19;48.39;101849.19;5074798;28;19977;-83
2022/05/21 03:07:55;;;;;;;;;;;;;;;23.19;48.11;101840.91;5074719;28;20005;-83
2022/05/21 03:10:22;;;;;;;;;;;;;;;23.19;48.39;101840.91;5073463;28;20376;-84
2022/05/21 03:12:50;;;;;;;;;;;;;;;23.18;48.14;101848.34;5073396;28;19946;-84
2022/05/21 03:15:16;;;;;;;;;;;;;;;23.18;48.01;101844.78;5074552;28;19959;-84
2022/05/21 03:17:41;;;;;;;;;;;;;;;23.19;48.38;101843.69;5074771;28;19950;-84
2022/05/21 03:20:07;;;;;;;;;;;;;;;23.17;47.98;101838.44;5074558;28;20288;-83
2022/05/21 03:22:32;;;;;;;;;;;;;;;23.18;48.00;101833.75;5073790;28;19934;-85
2022/05/21 03:24:57;;;;;;;;;;;;;;;23.18;48.03;101831.81;5073224;28;20360;-84
2022/05/21 03:27:24;;;;;;;;;;;;;;;23.17;48.01;101827.44;5073125;28;19931;-84
2022/05/21 03:29:49;;;;;;;;;;;;;;;23.18;48.38;101844.78;5056661;28;19966;-83
2022/05/21 03:32:15;;;;;;;;;;;;;;;23.18;48.40;101842.03;5074288;28;19956;-83
2022/05/21 03:34:41;;;;;;;;;;;;;;;23.17;48.30;101837.63;5056458;28;20276;-84
2022/05/21 03:37:06;;;;;;;;;;;;;;;23.16;47.97;101836.84;5073170;28;19973;-83
2022/05/21 03:39:31;;;;;;;;;;;;;;;23.17;48.20;101843.16;5073864;28;19950;-84
2022/05/21 03:41:57;;;;;;;;;;;;;;;23.17;48.40;101837.63;5073905;28;20026;-84
2022/05/21 03:44:22;;;;;;;;;;;;;;;23.16;48.42;101845.09;5072845;28;20258;-84
2022/05/21 03:46:47;;;;;;;;;;;;;;;23.16;48.11;101847.00;5074028;28;19916;-84
2022/05/21 03:49:13;;;;;;;;;;;;;;;23.16;48.20;101842.34;5074041;28;19963;-84
2022/05/21 03:51:39;;;;;;;;;;;;;;;23.15;48.42;101846.19;5074152;28;19946;-84
2022/05/21 03:54:04;;;;;;;;;;;;;;;23.15;47.96;101854.47;5056120;28;19971;-84
2022/05/21 03:56:29;;;;;;;;;;;;;;;23.16;48.05;101847.00;5074046;28;20257;-83
2022/05/21 03:58:54;;;;;;;;;;;;;;;23.15;48.24;101846.19;5055763;28;19921;-79
2022/05/21 04:01:20;;;;;;;;;;;;;;;23.15;47.92;101857.22;5072089;28;19924;-84
2022/05/21 04:03:45;;;;;;;;;;;;;;;23.15;48.23;101851.72;5072643;28;19923;-82
2022/05/21 04:06:12;;;;;;;;;;;;;;;23.16;48.04;101858.03;5073541;28;20031;-84
2022/05/21 04:08:37;;;;;;;;;;;;;;;23.16;48.03;101850.59;5072855;28;20009;-82
2022/05/21 04:11:03;;;;;;;;;;;;;;;23.17;48.40;101866.00;5073657;28;19927;-81
2022/05/21 04:13:28;;;;;;;;;;;;;;;23.17;48.10;101867.97;5072829;28;19931;-82
2022/05/21 04:15:53;;;;;;;;;;;;;;;23.19;48.30;101868.47;5073516;28;19920;-79
2022/05/21 04:18:19;;;;;;;;;;;;;;;23.18;48.34;101862.13;5073465;28;19916;-82
2022/05/21 04:20:44;;;;;;;;;;;;;;;23.19;48.07;101869.28;5072063;28;20298;-82
2022/05/21 04:23:09;;;;;;;;;;;;;;;23.20;47.93;101865.41;5073468;28;20379;-77
2022/05/21 04:25:35;;;;;;;;;;;;;;;23.20;48.20;101873.69;5073964;28;20394;-81
2022/05/21 04:28:00;;;;;;;;;;;;;;;23.20;48.27;101870.91;5072655;28;19969;-82
2022/05/21 04:30:28;;;;;;;;;;;;;;;23.22;47.99;101878.91;5072108;28;19956;-80
2022/05/21 04:32:53;;;;;;;;;;;;;;;23.22;48.46;101876.97;5072100;28;20038;-81
2022/05/21 04:35:19;;;;;;;;;;;;;;;23.24;48.36;101884.94;5073243;28;20020;-85
2022/05/21 04:37:45;;;;;;;;;;;;;;;23.24;48.01;101887.69;5073289;28;19934;-79
2022/05/21 04:40:13;;;;;;;;;;;;;;;23.24;48.19;101877.47;5073359;28;19930;-82
2022/05/21 04:42:39;;;;;;;;;;;;;;;23.26;48.02;101879.94;5071938;28;20318;-80
2022/05/21 04:45:05;;;;;;;;;;;;;;;23.26;48.23;101886.28;5073487;28;20340;-82
2022/05/21 04:47:30;;;;;;;;;;;;;;;23.27;47.87;101884.31;5073554;28;19943;-79
2022/05/21 04:49:55;;;;;;;;;;;;;;;23.28;47.99;101883.19;5073224;28;19939;-80
2022/05/21 04:52:21;;;;;;;;;;;;;;;23.28;48.22;101880.44;5072279;28;19937;-80
2022/05/21 04:54:46;;;;;;;;;;;;;;;23.29;48.30;101880.16;5073829;28;19931;-80
2022/05/21 04:57:12;;;;;;;;;;;;;;;23.30;48.25;101883.72;5073651;28;19927;-81
2022/05/21 04:59:37;;;;;;;;;;;;;;;23.32;47.87;101887.00;5072949;28;19935;-84
2022/05/21 05:02:02;;;;;;;;;;;;;;;23.33;47.83;101891.38;5071790;28;19917;-80
2022/05/21 05:04:28;;;;;;;;;;;;;;;23.33;47.79;101891.38;5073417;28;19920;-80
2022/05/21 05:06:53;;;;;;;;;;;;;;;23.34;48.07;101898.56;5073038;28;19949;-82
2022/05/21 05:09:22;;;;;;;;;;;;;;;23.35;47.75;101902.13;5073019;28;19917;-80
2022/05/21 05:11:48;;;;;;;;;;;;;;;23.36;48.18;101910.09;5071679;28;19956;-80
2022/05/21 05:14:13;;;;;;;;;;;;;;;23.36;47.90;101901.00;5072763;28;20011;-80
2022/05/21 05:16:38;;;;;;;;;;;;;;;23.37;47.73;101905.41;5073114;28;20393;-79
2022/05/21 05:19:04;;;;;;;;;;;;;;;23.37;47.75;101910.91;5072018;28;20318;-80
2022/05/21 05:21:29;;;;;;;;;;;;;;;23.36;47.73;101912.84;5073639;28;19938;-80
2022/05/21 05:23:54;;;;;;;;;;;;;;;23.36;48.17;101915.63;5074447;28;20399;-80
2022/05/21 05:26:22;;;;;;;;;;;;;;;23.37;48.13;101917.25;5076660;28;19943;-80
2022/05/21 05:28:47;;;;;;;;;;;;;;;23.36;48.09;101915.63;5075947;28;20004;-80
2022/05/21 05:31:13;;;;;;;;;;;;;;;23.36;48.12;101909.25;5075321;28;20318;-80
2022/05/21 05:33:38;;;;;;;;;;;;;;;23.37;48.04;101919.19;5075534;28;19946;-79
2022/05/21 05:36:03;;;;;;;;;;;;;;;23.36;47.65;101928.56;5076041;28;20408;-80
2022/05/21 05:38:29;;;;;;;;;;;;;;;23.36;48.00;101926.66;5076764;28;20452;-79
2022/05/21 05:40:55;;;;;;;;;;;;;;;23.36;47.96;101918.38;5076949;28;19921;-79
2022/05/21 05:43:21;;;;;;;;;;;;;;;23.36;48.06;101921.13;5076694;28;19916;-80
2022/05/21 05:45:48;;;;;;;;;;;;;;;23.36;47.81;101912.00;5077006;28;19931;-79
2022/05/21 05:48:13;;;;;;;;;;;;;;;23.36;47.93;101923.88;5076490;28;19978;-80
2022/05/21 05:50:38;;;;;;;;;;;;;;;23.35;47.88;101922.22;5075514;28;20378;-80
2022/05/21 05:53:04;;;;;;;;;;;;;;;23.36;47.73;101925.81;5074899;28;20323;-80
2022/05/21 05:55:30;;;;;;;;;;;;;;;23.36;47.73;101920.28;5076419;28;19969;-80
2022/05/21 05:57:56;;;;;;;;;;;;;;;23.35;48.03;101925.00;5076083;28;19916;-80
2022/05/21 06:00:21;;;;;;;;;;;;;;;23.35;48.00;101922.22;5075713;28;19917;-81
2022/05/21 06:02:59;;;;;;;;;;;;;;;23.34;47.69;101920.59;5075867;28;20413;-79
2022/05/21 06:05:26;;;;;;;;;;;;;;;23.34;47.66;101926.13;5076203;28;19950;-78
2022/05/21 06:07:54;;;;;;;;;;;;;;;23.34;47.98;101931.63;5075794;28;19917;-79
2022/05/21 06:10:21;;;;;;;;;;;;;;;23.33;47.61;101925.31;5075042;28;19916;-79
2022/05/21 06:12:47;;;;;;;;;;;;;;;23.33;47.72;101933.59;5075824;28;19960;-79
2022/05/21 06:15:13;;;;;;;;;;;;;;;23.33;47.62;101936.34;5075248;28;19927;-79
2022/05/21 06:17:38;;;;;;;;;;;;;;;23.32;48.02;101934.69;5075659;28;19917;-79
2022/05/21 06:20:05;;;;;;;;;;;;;;;23.33;47.57;101941.84;5075677;28;19931;-78
2022/05/21 06:22:32;;;;;;;;;;;;;;;23.32;47.55;101951.22;5076052;28;19929;-80
2022/05/21 06:24:57;;;;;;;;;;;;;;;23.31;47.97;101944.09;5075578;28;20016;-79
2022/05/21 06:27:23;;;;;;;;;;;;;;;23.32;47.61;101953.16;5075707;28;20056;-80
2022/05/21 06:29:48;;;;;;;;;;;;;;;23.30;47.95;101958.16;5075486;28;19942;-80
2022/05/21 06:32:13;;;;;;;;;;;;;;;23.30;48.03;101944.38;5075483;28;19927;-80
2022/05/21 06:34:39;;;;;;;;;;;;;;;23.30;47.71;101947.13;5075338;28;20049;-79
2022/05/21 06:37:05;;;;;;;;;;;;;;;23.30;48.00;101964.47;5075327;28;19980;-80
2022/05/21 06:39:31;;;;;;;;;;;;;;;23.30;47.87;101966.44;5073693;28;20371;-80
2022/05/21 06:41:56;;;;;;;;;;;;;;;23.29;47.72;101962.03;5073880;28;19921;-80
2022/05/21 06:44:21;;;;;;;;;;;;;;;23.29;48.03;101962.84;5073905;28;20295;-79
2022/05/21 06:46:47;;;;;;;;;;;;;;;23.28;47.90;101969.50;5075532;28;20087;-79
2022/05/21 06:49:13;;;;;;;;;;;;;;;23.29;47.52;101967.56;5074348;28;19954;-79
2022/05/21 06:51:38;;;;;;;;;;;;;;;23.28;47.54;101966.75;5074949;28;20431;-79
2022/05/21 06:54:03;;;;;;;;;;;;;;;23.27;47.64;101965.09;5073547;28;20327;-80
2022/05/21 06:56:30;;;;;;;;;;;;;;;23.29;47.96;101964.81;5073132;28;20568;-79
2022/05/21 06:58:55;;;;;;;;;;;;;;;23.27;47.48;101978.06;5073262;28;19980;-79
2022/05/21 07:01:21;;;;;;;;;;;;;;;23.27;47.88;101981.63;5074386;28;20000;-80
2022/05/21 07:03:46;;;;;;;;;;;;;;;23.27;47.97;101980.81;5073573;28;19920;-79
2022/05/21 07:08:55;;;;;;;;;;;;;;;23.26;47.85;101991.03;5073962;28;20261;-79
2022/05/21 07:11:20;;;;;;;;;;;;;;;23.26;47.67;101991.03;5074675;28;19950;-79
2022/05/21 07:13:46;;;;;;;;;;;;;;;23.25;47.49;101992.13;5074578;28;19920;-80
2022/05/21 07:16:11;;;;;;;;;;;;;;;23.25;47.53;101994.06;5073259;28;19920;-79
2022/05/21 07:18:36;;;;;;;;;;;;;;;23.25;47.59;101997.63;5074444;28;19956;-79
2022/05/21 07:21:02;;;;;;;;;;;;;;;23.25;47.98;101994.88;5073953;28;19936;-80
2022/05/21 07:23:28;;;;;;;;;;;;;;;23.25;47.90;102005.91;5056425;28;19970;-81
2022/05/21 07:25:55;;;;;;;;;;;;;;;23.25;47.88;102000.41;5056869;28;19921;-81
2022/05/21 07:28:20;;;;;;;;;;;;;;;23.25;47.86;101994.06;5074264;28;20015;-81
2022/05/21 07:30:46;;;;;;;;;;;;;;;23.26;48.00;102001.25;5073012;28;19920;-82
2022/05/21 07:33:13;;;;;;;;;;;;;;;23.26;47.98;102001.25;5074256;28;19934;-79
2022/05/21 07:35:38;;;;;;;;;;;;;;;23.26;47.95;102007.56;5074133;28;20397;-82
2022/05/21 07:38:08;;;;;;;;;;;;;;;23.26;47.61;102002.06;5073294;28;19943;-80
2022/05/21 07:40:33;;;;;;;;;;;;;;;23.27;47.78;102000.13;5073224;28;19916;-81
2022/05/21 07:42:59;;;;;;;;;;;;;;;23.28;47.71;102005.34;5073571;28;19932;-82
2022/05/21 07:45:24;;;;;;;;;;;;;;;23.28;47.67;102010.84;5073737;28;19986;-81
2022/05/21 07:47:50;;;;;;;;;;;;;;;23.29;47.69;102012.47;5072782;28;19951;-83
2022/05/21 07:50:15;;;;;;;;;;;;;;;23.30;47.89;102008.59;5073342;28;19969;-81
2022/05/21 07:52:41;;;;;;;;;;;;;;;23.31;48.00;102006.69;5071393;28;19923;-84
2022/05/21 07:55:07;;;;;;;;;;;;;;;23.30;47.83;102011.34;5073060;28;19971;-83
2022/05/21 07:57:32;;;;;;;;;;;;;;;23.31;47.90;102014.94;5072311;28;20342;-83
2022/05/21 07:59:58;;;;;;;;;;;;;;;23.33;48.12;102018.19;5073954;28;19943;-82
2022/05/21 08:02:23;;;;;;;;;;;;;;;23.34;47.98;102019.88;5073736;28;19916;-82
2022/05/21 08:04:48;;;;;;;;;;;;;;;23.36;48.41;102025.06;5056360;28;20011;-85
2022/05/21 08:07:14;;;;;;;;;;;;;;;23.36;48.04;102019.53;5055608;28;20044;-84
2022/05/21 08:09:40;;;;;;;;;;;;;;;23.37;48.38;102021.19;5072524;28;20388;-85
2022/05/21 08:12:07;;;;;;;;;;;;;;;23.36;48.15;102025.91;5072356;28;19982;-84
2022/05/21 08:14:33;;;;;;;;;;;;;;;23.37;48.40;102030.28;5072932;28;19920;-85
2022/05/21 08:16:58;;;;;;;;;;;;;;;23.38;48.06;102033.84;5073614;28;19951;-85
2022/05/21 08:19:23;;;;;;;;;;;;;;;23.37;47.98;102035.00;5055746;28;20328;-87
2022/05/21 08:21:49;;;;;;;;;;;;;;;23.38;48.30;102031.09;5072598;28;20389;-83
2022/05/21 08:27:02;;;;;;;;;;;;;;;23.40;48.22;102031.63;5072719;28;19957;-84
2022/05/21 08:29:27;;;;;;;;;;;;;;;23.40;47.90;102035.19;5073720;28;19967;-83
2022/05/21 08:31:52;;;;;;;;;;;;;;;23.40;48.17;102026.94;5074382;28;19912;-84
2022/05/21 08:34:18;;;;;;;;;;;;;;;23.42;47.72;102035.72;5072292;28;19920;-81
2022/05/21 08:36:43;;;;;;;;;;;;;;;23.42;47.95;102024.69;5072807;28;19919;-83
2022/05/21 08:39:09;;;;;;;;;;;;;;;23.43;48.07;102031.84;5055638;28;20382;-84
2022/05/21 08:41:35;;;;;;;;;;;;;;;23.44;48.24;102032.69;5073438;28;19941;-83
2022/05/21 08:44:03;;;;;;;;;;;;;;;23.44;47.96;102027.97;5073615;28;19996;-82
2022/05/21 08:46:37;;;;;;;;;;;;;;;23.44;48.11;102021.66;5073061;28;19958;-84
2022/05/21 08:49:07;;;;;;;;;;;;;;;23.45;48.45;102026.84;5073473;28;19930;-84
2022/05/21 08:51:49;;;;;;;;;;;;;;;23.45;48.02;102032.38;5071808;28;20008;-83
2022/05/21 08:54:16;;;;;;;;;;;;;;;23.45;48.45;102024.09;5071769;28;19955;-83
2022/05/21 08:56:41;;;;;;;;;;;;;;;23.46;48.35;102020.22;5072076;28;20290;-86
2022/05/21 08:59:08;;;;;;;;;;;;;;;23.46;48.46;102030.41;5073647;28;20333;-86
2022/05/21 09:01:35;;;;;;;;;;;;;;;23.47;48.48;102032.06;5075773;28;19938;-87
2022/05/21 09:04:01;;;;;;;;;;;;;;;23.46;48.27;102019.38;5075900;28;19972;-86
2022/05/21 09:06:44;;;;;;;;;;;;;;;23.46;48.02;102016.63;5075968;28;19938;-87
2022/05/21 09:09:33;;;;;;;;;;;;;;;23.45;47.91;102024.09;5076977;28;19941;-88
2022/05/21 09:12:19;;;;;;;;;;;;;;;23.45;48.13;102015.81;5077246;28;20017;-92
2022/05/21 09:14:47;;;;;;;;;;;;;;;23.44;48.27;102016.94;5076694;28;20267;-85
2022/05/21 09:17:14;;;;;;;;;;;;;;;23.44;48.31;102010.63;5059099;28;19923;-88
2022/05/21 09:19:42;;;;;;;;;;;;;;;23.43;47.87;102009.78;5076495;28;19985;-86
2022/05/21 09:22:18;;;;;;;;;;;;;;;23.42;48.20;102013.66;5076536;28;19931;-85
2022/05/21 09:24:44;;;;;;;;;;;;;;;23.42;48.16;102012.84;5076953;28;19935;-90
2022/05/21 09:27:26;;;;;;;;;;;;;;;23.42;47.91;102012.84;5075113;28;19919;-87
2022/05/21 09:29:53;;;;;;;;;;;;;;;23.42;48.13;102015.59;5075306;28;19912;-86
2022/05/21 09:32:23;;;;;;;;;;;;;;;23.42;48.16;102018.38;5076116;28;19917;-85
2022/05/21 09:35:09;;;;;;;;;;;;;;;23.41;48.16;102025.81;5075466;28;20268;-87
2022/05/21 09:37:34;;;;;;;;;;;;;;;23.41;48.01;102022.22;5076504;28;19912;-86
2022/05/21 09:40:00;;;;;;;;;;;;;;;23.40;47.84;102029.69;5075245;28;19995;-85
2022/05/21 09:45:23;;;;;;;;;;;;;;;23.40;47.85;102026.13;5078146;28;19919;-87
2022/05/21 09:48:03;;;;;;;;;;;;;;;23.39;47.90;102018.97;5074721;28;20045;-86
2022/05/21 09:50:29;;;;;;;;;;;;;;;23.39;47.76;102038.28;5076194;28;19978;-87
2022/05/21 09:52:54;;;;;;;;;;;;;;;23.38;48.00;102036.63;5074523;28;19927;-85
2022/05/21 09:55:25;;;;;;;;;;;;;;;23.37;48.05;102030.28;5057959;28;20019;-86
2022/05/21 09:57:51;;;;;;;;;;;;;;;23.37;48.15;102027.53;5074774;28;19978;-87
2022/05/21 10:00:36;;;;;;;;;;;;;;;23.37;48.07;102026.72;5074870;28;19988;-89
2022/05/21 10:03:03;;;;;;;;;;;;;;;23.37;47.72;102032.22;5075990;28;19912;-87
2022/05/21 10:05:28;;;;;;;;;;;;;;;23.36;47.67;102028.66;5074770;28;19981;-83
2022/05/21 10:10:58;;;;;;;;;;;;;;;23.36;47.86;102036.94;5075338;28;19980;-83
2022/05/21 10:13:24;;;;;;;;;;;;;;;23.35;48.06;102038.03;5076018;28;19933;-86
2022/05/21 10:15:53;;;;;;;;;;;;;;;23.33;47.56;102032.84;5074107;28;19913;-85
2022/05/21 10:18:19;;;;;;;;;;;;;;;23.33;47.88;102027.31;5075463;28;20339;-85
2022/05/21 10:20:46;;;;;;;;;;;;;;;23.33;47.79;102034.75;5074403;28;19984;-86
2022/05/21 10:23:12;;;;;;;;;;;;;;;23.33;47.93;102026.47;5075754;28;20029;-86
2022/05/21 10:25:48;;;;;;;;;;;;;;;23.32;47.42;102031.19;5075544;28;20447;-86
2022/05/21 10:28:26;;;;;;;;;;;;;;;23.32;47.80;102030.38;5075602;28;19939;-86
2022/05/21 10:31:00;;;;;;;;;;;;;;;23.29;47.75;102030.97;5076118;28;19979;-86
2022/05/21 10:33:25;;;;;;;;;;;;;;;23.29;47.52;102036.47;5074577;28;19945;-86
2022/05/21 10:36:03;;;;;;;;;;;;;;;23.28;47.65;102032.91;5073511;28;19927;-86
2022/05/21 10:38:43;;;;;;;;;;;;;;;23.28;47.45;102043.09;5074306;28;19916;-86
2022/05/21 10:41:28;;;;;;;;;;;;;;;23.27;47.29;102031.25;5076328;28;20355;-86
2022/05/21 10:44:12;;;;;;;;;;;;;;;23.27;47.52;102044.22;5075093;28;20237;-86
2022/05/21 10:46:56;;;;;;;;;;;;;;;23.26;47.13;102037.91;5075096;28;19938;-86
2022/05/21 10:49:46;;;;;;;;;;;;;;;23.24;47.21;102037.38;5075048;28;19927;-86
2022/05/21 10:52:22;;;;;;;;;;;;;;;23.24;46.92;102042.88;5074057;28;19931;-86
2022/05/21 10:55:06;;;;;;;;;;;;;;;23.23;46.75;102038.47;5073849;28;19959;-86
2022/05/21 10:57:50;;;;;;;;;;;;;;;23.22;47.11;102039.59;5073543;28;19934;-85
2022/05/21 11:00:16;;;;;;;;;;;;;;;23.22;46.82;102041.53;5074068;28;20021;-85
2022/05/21 11:02:51;;;;;;;;;;;;;;;23.21;46.70;102042.63;5073457;28;19970;-87
2022/05/21 11:05:35;;;;;;;;;;;;;;;23.21;46.36;102042.63;5073263;28;19946;-85
2022/05/21 11:08:06;;;;;;;;;;;;;;;23.20;46.47;102049.28;5074490;28;20260;-86
2022/05/21 11:10:43;;;;;;;;;;;;;;;23.19;46.58;102047.66;5074630;28;19952;-84
2022/05/21 11:13:23;;;;;;;;;;;;;;;23.19;46.75;102053.16;5074601;28;19929;-85
2022/05/21 11:15:50;;;;;;;;;;;;;;;23.19;46.81;102053.97;5073428;28;19931;-85
2022/05/21 11:18:16;;;;;;;;;;;;;;;23.19;46.44;102047.66;5073964;28;19988;-84
2022/05/21 11:20:52;;;;;;;;;;;;;;;23.18;46.39;102055.06;5072720;28;20026;-83
2022/05/21 11:23:34;;;;;;;;;;;;;;;23.18;46.67;102046.81;5074562;28;19920;-85
2022/05/21 11:26:05;;;;;;;;;;;;;;;23.19;46.57;102051.22;5073027;28;19912;-85
2022/05/21 11:28:46;;;;;;;;;;;;;;;23.20;46.55;102052.03;5073916;28;19941;-85
2022/05/21 11:39:39;;;;;;;;;;;;;;;23.18;46.03;102052.31;5074627;28;20033;-85
2022/05/21 11:42:07;;;;;;;;;;;;;;;23.18;46.32;102057.00;5073626;28;19973;-85
2022/05/21 11:44:56;;;;;;;;;;;;;;;23.18;46.25;102043.22;5073739;28;19934;-86
2022/05/21 11:47:21;;;;;;;;;;;;;;;23.18;46.30;102035.78;5073892;28;19946;-86
2022/05/21 11:49:49;;;;;;;;;;;;;;;23.18;46.31;102038.53;5074309;28;19973;-85
2022/05/21 11:52:30;;;;;;;;;;;;;;;23.18;46.23;102029.44;5073048;28;19987;-86
2022/05/21 11:54:58;;;;;;;;;;;;;;;23.18;46.07;102046.81;5075212;28;19950;-86
2022/05/21 11:57:41;;;;;;;;;;;;;;;23.18;46.29;102040.47;5074785;28;19967;-87
2022/05/21 12:00:24;;;;;;;;;;;;;;;23.19;45.88;102037.44;5072698;28;19927;-87
2022/05/21 12:02:53;;;;;;;;;;;;;;;23.19;46.12;102034.69;5074133;28;19934;-87
2022/05/21 12:05:40;;;;;;;;;;;;;;;23.20;46.29;102033.56;5074179;28;19916;-87
2022/05/21 12:08:17;;;;;;;;;;;;;;;23.21;46.27;102043.47;5072949;28;19950;-87
2022/05/21 12:10:56;;;;;;;;;;;;;;;23.22;46.24;102036.84;5073032;28;20382;-86
2022/05/21 12:13:41;;;;;;;;;;;;;;;23.22;45.79;102041.53;5072702;28;19913;-86
2022/05/21 12:16:22;;;;;;;;;;;;;;;23.22;46.25;102027.75;5073767;28;19970;-86
2022/05/21 12:18:47;;;;;;;;;;;;;;;23.22;46.08;102031.31;5072794;28;20041;-85
2022/05/21 12:23:56;;;;;;;;;;;;;;;23.24;46.17;102031.03;5073815;28;20385;-86
2022/05/21 12:26:22;;;;;;;;;;;;;;;23.24;45.75;102031.84;5074381;28;19912;-86
2022/05/21 12:28:57;;;;;;;;;;;;;;;23.24;45.70;102020.81;5072317;28;19986;-86
2022/05/21 12:31:28;;;;;;;;;;;;;;;23.25;46.09;102024.41;5072538;28;19939;-86
2022/05/21 12:34:12;;;;;;;;;;;;;;;23.25;46.04;102014.19;5075595;28;19932;-85
2022/05/21 12:36:56;;;;;;;;;;;;;;;23.26;46.14;102026.06;5078398;28;19920;-86
2022/05/21 12:39:25;;;;;;;;;;;;;;;23.26;46.15;102029.63;5078671;28;20417;-92
2022/05/21 12:41:53;;;;;;;;;;;;;;;23.27;46.04;102025.75;5077712;28;19934;-82
2022/05/21 12:44:38;;;;;;;;;;;;;;;23.28;46.08;102024.63;5076670;28;19955;-83
2022/05/21 12:47:03;;;;;;;;;;;;;;;23.29;46.04;102031.78;5076104;28;19931;-82
2022/05/21 12:49:30;;;;;;;;;;;;;;;23.28;45.68;102027.41;5077906;28;19920;-82
2022/05/21 12:51:55;;;;;;;;;;;;;;;23.31;46.11;102028.75;5075994;28;19942;-82
2022/05/21 12:54:22;;;;;;;;;;;;;;;23.28;45.99;102019.13;5077128;28;19966;-82
2022/05/21 12:56:47;;;;;;;;;;;;;;;23.31;45.84;102025.97;5077505;28;19970;-87
2022/05/21 12:59:15;;;;;;;;;;;;;;;23.29;45.94;102019.94;5077335;28;19920;-85
2022/05/21 13:01:51;;;;;;;;;;;;;;;23.30;45.50;102021.56;5077246;28;19916;-86
2022/05/21 13:04:25;;;;;;;;;;;;;;;23.29;45.93;102025.44;5076607;28;19924;-86
2022/05/21 13:06:53;;;;;;;;;;;;;;;23.28;45.57;102024.63;5075628;28;19920;-86
2022/05/21 13:09:18;;;;;;;;;;;;;;;23.29;45.40;102018.00;5075998;28;19920;-86